createdAt,value
2018-10-01T03:01:09.727Z,985.33
2018-10-01T03:02:10.293Z,985.33
2018-10-01T03:03:10.200Z,985.35
2018-10-01T03:04:10.362Z,985.28
2018-10-01T03:05:10.734Z,985.35
2018-10-01T03:06:11.109Z,985.38
2018-10-01T03:07:10.644Z,985.31
2018-10-01T03:08:09.988Z,985.37
2018-10-01T03:09:09.125Z,985.40
2018-10-01T03:10:09.097Z,985.38
2018-10-01T03:11:09.418Z,985.36
2018-10-01T03:12:09.412Z,985.39
2018-10-01T03:13:09.783Z,985.33
2018-10-01T03:14:09.737Z,985.34
2018-10-01T03:15:10.107Z,985.27
2018-10-01T03:16:12.120Z,985.32
2018-10-01T03:17:10.375Z,985.31
2018-10-01T03:18:11.106Z,985.32
2018-10-01T03:19:11.992Z,985.32
2018-10-01T03:20:10.847Z,985.32
2018-10-01T03:21:11.765Z,985.30
2018-10-01T03:22:11.311Z,985.31
2018-10-01T03:23:11.456Z,985.30
2018-10-01T03:24:11.707Z,985.30
2018-10-01T03:27:09.393Z,985.40
2018-10-01T03:28:03.125Z,985.36
2018-10-01T03:29:27.113Z,985.35
2018-10-01T03:30:07.410Z,985.39
2018-10-01T03:31:07.545Z,985.41
2018-10-01T03:34:58.507Z,985.36
2018-10-01T03:37:24.477Z,985.35
2018-10-01T03:38:25.440Z,985.33
2018-10-01T03:39:25.527Z,985.34
2018-10-01T03:40:36.016Z,985.35
2018-10-01T03:41:25.128Z,985.33
2018-10-01T03:42:25.976Z,985.34
2018-10-01T03:43:26.167Z,985.32
2018-10-01T03:44:30.573Z,985.28
2018-10-01T03:45:26.615Z,985.30
2018-10-01T03:46:27.263Z,985.30
2018-10-01T03:47:26.228Z,985.31
2018-10-01T03:48:25.772Z,985.30
2018-10-01T03:49:24.893Z,985.25
2018-10-01T03:50:24.511Z,985.29
2018-10-01T03:53:38.990Z,985.27
2018-10-01T03:54:35.186Z,985.23
2018-10-01T03:55:36.113Z,985.29
2018-10-01T03:56:35.573Z,985.32
2018-10-01T03:57:37.049Z,985.27
2018-10-01T03:58:36.082Z,985.22
2018-10-01T03:59:37.221Z,985.20
2018-10-01T04:00:37.979Z,985.13
2018-10-01T04:01:39.368Z,985.13
2018-10-01T04:02:38.737Z,985.13
2018-10-01T04:03:39.531Z,985.15
2018-10-01T04:04:38.059Z,985.14
2018-10-01T04:05:49.249Z,985.16
2018-10-01T04:06:41.020Z,985.12
2018-10-01T04:07:34.936Z,985.17
2018-10-01T04:08:35.746Z,985.21
2018-10-01T04:09:35.530Z,985.24
2018-10-01T04:13:28.986Z,985.29
2018-10-01T04:14:29.391Z,985.28
2018-10-01T04:15:32.363Z,985.32
2018-10-01T04:16:28.439Z,985.33
2018-10-01T04:17:40.521Z,985.36
2018-10-01T04:18:29.699Z,985.35
2018-10-01T04:19:31.838Z,985.31
2018-10-01T04:20:28.933Z,985.40
2018-10-01T04:21:29.637Z,985.37
2018-10-01T04:22:29.141Z,985.35
2018-10-01T04:23:52.093Z,985.36
2018-10-01T04:24:30.025Z,985.33
2018-10-01T04:25:32.563Z,985.33
2018-10-01T04:29:27.595Z,985.34
2018-10-01T04:45:54.604Z,985.54
2018-10-01T04:46:56.917Z,985.57
2018-10-01T04:48:19.488Z,985.53
2018-10-01T05:22:24.479Z,985.84
2018-10-01T05:23:24.614Z,985.82
2018-10-01T05:24:26.053Z,985.79
2018-10-01T05:25:23.704Z,985.83
2018-10-01T05:26:24.137Z,985.83
2018-10-01T05:27:22.715Z,985.79
2018-10-01T05:28:23.631Z,985.84
2018-10-01T05:29:25.576Z,985.87
2018-10-01T05:30:24.613Z,985.86
2018-10-01T05:31:23.842Z,985.90
2018-10-01T05:32:23.729Z,985.87
2018-10-01T05:33:23.717Z,985.90
2018-10-01T05:34:35.661Z,985.86
2018-10-01T05:35:27.045Z,985.86
2018-10-01T05:36:27.022Z,985.88
2018-10-01T05:37:27.974Z,985.89
2018-10-01T05:38:28.038Z,985.90
2018-10-01T05:39:30.581Z,985.88
2018-10-01T05:40:27.147Z,985.94
2018-10-01T05:43:38.773Z,985.97
2018-10-01T05:44:38.153Z,986.00
2018-10-01T05:45:37.754Z,985.98
2018-10-01T05:46:38.284Z,985.96
2018-10-01T05:47:37.897Z,986.00
2018-10-01T05:48:40.963Z,985.98
2018-10-01T05:49:39.338Z,985.98
2018-10-01T05:50:39.562Z,986.01
2018-10-01T05:51:38.870Z,986.00
2018-10-01T05:52:39.361Z,986.04
2018-10-01T05:53:40.496Z,986.03
2018-10-01T05:54:40.441Z,986.01
2018-10-01T05:55:40.447Z,986.02
2018-10-01T05:56:39.413Z,986.06
2018-10-01T05:57:37.948Z,985.99
2018-10-01T05:58:37.569Z,986.01
2018-10-01T05:59:37.675Z,986.03
2018-10-01T06:00:38.917Z,986.02
2018-10-01T06:01:37.989Z,986.05
2018-10-01T06:02:38.177Z,986.06
2018-10-01T06:03:38.408Z,986.10
2018-10-01T06:04:38.521Z,986.09
2018-10-01T06:05:38.676Z,986.07
2018-10-01T06:06:39.316Z,986.08
2018-10-01T06:07:39.009Z,986.11
2018-10-01T06:08:39.388Z,986.08
2018-10-01T06:09:39.529Z,986.13
2018-10-01T06:10:39.765Z,986.16
2018-10-01T06:11:40.231Z,986.15
2018-10-01T06:12:40.375Z,986.20
2018-10-01T06:13:40.732Z,986.21
2018-10-01T06:14:40.387Z,986.22
2018-10-01T06:15:40.611Z,986.19
2018-10-01T06:16:40.779Z,986.23
2018-10-01T06:17:40.949Z,986.24
2018-10-01T06:18:41.241Z,986.24
2018-10-01T06:19:41.320Z,986.27
2018-10-01T06:20:41.588Z,986.31
2018-10-01T06:21:41.681Z,986.34
2018-10-01T06:22:41.994Z,986.37
2018-10-01T06:23:42.140Z,986.36
2018-10-01T06:24:42.093Z,986.38
2018-10-01T06:25:42.145Z,986.39
2018-10-01T06:26:42.333Z,986.38
2018-10-01T06:27:42.531Z,986.40
2018-10-01T06:28:42.692Z,986.45
2018-10-01T06:29:44.194Z,986.44
2018-10-01T06:30:43.332Z,986.42
2018-10-01T06:31:43.205Z,986.48
2018-10-01T06:32:43.400Z,986.48
2018-10-01T06:33:43.809Z,986.49
2018-10-01T06:34:43.972Z,986.54
2018-10-01T06:35:55.010Z,986.51
2018-10-01T06:36:48.873Z,986.49
2018-10-01T06:37:47.278Z,986.43
2018-10-01T06:38:48.960Z,986.43
2018-10-01T06:39:52.288Z,986.45
2018-10-01T06:40:47.762Z,986.49
2018-10-01T06:41:49.981Z,986.47
2018-10-01T06:42:45.714Z,986.50
2018-10-01T06:43:46.857Z,986.50
2018-10-01T06:45:23.021Z,986.52
2018-10-01T06:49:49.562Z,986.58
2018-10-01T06:50:34.919Z,986.56
2018-10-01T06:51:35.450Z,986.54
2018-10-01T06:52:37.139Z,986.56
2018-10-01T06:55:18.845Z,986.60
2018-10-01T06:56:11.373Z,986.59
2018-10-01T06:58:38.633Z,986.62
2018-10-01T07:04:25.461Z,986.64
2018-10-01T07:08:12.830Z,986.70
2018-10-01T07:09:10.537Z,986.68
2018-10-01T07:10:10.415Z,986.68
2018-10-01T07:11:16.101Z,986.68
2018-10-01T07:16:47.128Z,986.69
2018-10-01T07:20:52.264Z,986.75
2018-10-01T07:26:18.512Z,986.77
2018-10-01T07:27:17.166Z,986.80
2018-10-01T07:31:14.623Z,986.85
2018-10-01T07:32:15.133Z,986.86
2018-10-01T07:33:17.463Z,986.90
2018-10-01T07:34:40.358Z,986.91
2018-10-01T07:35:17.315Z,986.91
2018-10-01T07:37:21.498Z,986.91
2018-10-01T07:38:19.539Z,986.93
2018-10-01T07:39:28.288Z,986.94
2018-10-01T07:40:30.754Z,986.93
2018-10-01T07:41:21.188Z,986.94
2018-10-01T07:42:33.209Z,987.01
2018-10-01T07:44:32.567Z,987.03
2018-10-01T07:45:17.960Z,986.99
2018-10-01T07:46:19.698Z,987.08
2018-10-01T07:47:17.193Z,987.04
2018-10-01T07:48:15.212Z,987.05
2018-10-01T07:49:14.667Z,987.02
2018-10-01T07:50:14.887Z,987.11
2018-10-01T07:51:15.290Z,987.11
2018-10-01T07:52:15.103Z,987.11
2018-10-01T07:53:15.501Z,987.11
2018-10-01T07:54:15.429Z,987.11
2018-10-01T07:55:15.695Z,987.11
2018-10-01T07:56:16.668Z,987.15
2018-10-01T07:57:16.266Z,987.12
2018-10-01T07:58:16.168Z,987.19
2018-10-01T07:59:16.586Z,987.20
2018-10-01T08:00:16.709Z,987.17
2018-10-01T08:01:16.716Z,987.20
2018-10-01T08:02:17.140Z,987.23
2018-10-01T08:03:17.390Z,987.26
2018-10-01T08:04:17.441Z,987.26
2018-10-01T08:05:17.617Z,987.33
2018-10-01T08:06:17.815Z,987.28
2018-10-01T08:07:17.825Z,987.22
2018-10-01T08:08:18.262Z,987.27
2018-10-01T08:09:18.288Z,987.26
2018-10-01T08:10:18.599Z,987.31
2018-10-01T08:11:18.562Z,987.39
2018-10-01T08:12:19.084Z,987.37
2018-10-01T08:13:18.989Z,987.40
2018-10-01T08:14:19.153Z,987.35
2018-10-01T08:15:20.218Z,987.32
2018-10-01T08:16:19.720Z,987.37
2018-10-01T08:17:21.066Z,987.37
2018-10-01T08:18:21.030Z,987.37
2018-10-01T08:19:21.119Z,987.40
2018-10-01T08:20:21.823Z,987.42
2018-10-01T08:21:21.267Z,987.45
2018-10-01T08:22:20.611Z,987.43
2018-10-01T08:23:21.424Z,987.52
2018-10-01T08:24:21.548Z,987.51
2018-10-01T08:25:21.219Z,987.38
2018-10-01T08:26:21.738Z,987.50
2018-10-01T08:27:21.262Z,987.46
2018-10-01T08:28:21.986Z,987.52
2018-10-01T08:29:22.016Z,987.46
2018-10-01T08:30:21.972Z,987.55
2018-10-01T08:31:22.196Z,987.59
2018-10-01T08:32:24.255Z,987.54
2018-10-01T08:33:23.765Z,987.56
2018-10-01T08:35:23.569Z,987.56
2018-10-01T08:36:23.485Z,987.50
2018-10-01T08:37:23.354Z,987.53
2018-10-01T08:38:24.086Z,987.52
2018-10-01T08:39:23.529Z,987.54
2018-10-01T08:40:24.513Z,987.59
2018-10-01T08:41:24.200Z,987.54
2018-10-01T08:42:24.287Z,987.57
2018-10-01T08:43:24.542Z,987.58
2018-10-01T08:44:24.513Z,987.55
2018-10-01T08:45:24.769Z,987.55
2018-10-01T08:46:25.500Z,987.56
2018-10-01T08:47:25.391Z,987.57
2018-10-01T08:48:25.445Z,987.53
2018-10-01T08:49:26.588Z,987.58
2018-10-01T08:50:27.231Z,987.55
2018-10-01T08:53:10.214Z,987.57
2018-10-01T08:54:08.863Z,987.57
2018-10-01T08:56:11.786Z,987.67
2018-10-01T08:57:39.388Z,987.67
2018-10-01T09:02:25.436Z,987.77
2018-10-01T09:03:58.967Z,987.71
2018-10-01T09:04:21.190Z,987.69
2018-10-01T09:06:38.536Z,987.69
2018-10-01T09:07:22.474Z,987.75
2018-10-01T09:08:19.323Z,987.76
2018-10-01T09:09:20.003Z,987.78
2018-10-01T09:14:29.714Z,987.80
2018-10-01T09:16:16.648Z,987.91
2018-10-01T09:17:13.659Z,987.90
2018-10-01T09:18:13.493Z,987.96
2018-10-01T09:19:11.374Z,987.86
2018-10-01T09:20:10.316Z,987.94
2018-10-01T09:21:10.521Z,987.98
2018-10-01T09:22:10.541Z,988.02
2018-10-01T09:23:10.687Z,987.99
2018-10-01T09:24:10.842Z,988.07
2018-10-01T09:25:11.132Z,988.05
2018-10-01T09:26:11.419Z,988.08
2018-10-01T09:27:11.302Z,987.97
2018-10-01T09:28:11.483Z,988.00
2018-10-01T09:29:11.715Z,988.00
2018-10-01T09:30:11.815Z,988.04
2018-10-01T09:31:11.946Z,988.02
2018-10-01T09:32:12.210Z,987.99
2018-10-01T09:33:12.297Z,987.96
2018-10-01T09:34:12.416Z,988.12
2018-10-01T09:35:12.667Z,988.24
2018-10-01T09:36:12.864Z,987.94
2018-10-01T09:37:13.036Z,988.23
2018-10-01T09:38:13.232Z,988.01
2018-10-01T09:39:13.319Z,987.87
2018-10-01T09:40:13.590Z,988.03
2018-10-01T09:41:14.284Z,988.25
2018-10-01T09:42:13.862Z,988.32
2018-10-01T09:43:14.011Z,988.38
2018-10-01T09:44:14.177Z,988.36
2018-10-01T09:45:14.441Z,988.31
2018-10-01T09:46:14.685Z,988.33
2018-10-01T09:47:14.679Z,988.34
2018-10-01T09:48:14.846Z,988.42
2018-10-01T09:49:15.135Z,988.49
2018-10-01T09:50:15.355Z,988.51
2018-10-01T09:51:15.357Z,988.65
2018-10-01T09:52:15.604Z,988.84
2018-10-01T09:53:15.762Z,988.92
2018-10-01T09:54:15.931Z,988.95
2018-10-01T09:55:16.122Z,988.42
2018-10-01T09:56:16.293Z,988.94
2018-10-01T09:57:16.421Z,988.88
2018-10-01T09:58:16.670Z,989.00
2018-10-01T09:59:16.830Z,988.88
2018-10-01T10:00:16.983Z,988.25
2018-10-01T10:01:17.231Z,988.06
2018-10-01T10:02:17.351Z,988.21
2018-10-01T10:03:18.493Z,988.63
2018-10-01T10:04:17.732Z,989.05
2018-10-01T10:05:17.935Z,988.94
2018-10-01T10:06:18.117Z,988.11
2018-10-01T10:07:18.241Z,988.80
2018-10-01T10:08:18.966Z,988.05
2018-10-01T10:09:18.541Z,988.11
2018-10-01T10:10:18.763Z,988.18
2018-10-01T10:11:19.030Z,988.93
2018-10-01T10:12:19.178Z,988.25
2018-10-01T10:13:19.260Z,988.84
2018-10-01T10:14:19.512Z,988.76
2018-10-01T10:15:19.698Z,988.20
2018-10-01T10:16:19.996Z,988.61
2018-10-01T10:17:20.061Z,988.91
2018-10-01T10:18:20.462Z,989.03
2018-10-01T10:19:21.055Z,988.92
2018-10-01T10:20:21.881Z,988.98
2018-10-01T10:21:22.718Z,989.00
2018-10-01T10:22:21.036Z,988.16
2018-10-01T10:23:21.088Z,988.03
2018-10-01T10:24:21.320Z,988.00
2018-10-01T10:25:22.352Z,987.99
2018-10-01T10:26:22.106Z,987.98
2018-10-01T10:27:22.900Z,988.04
2018-10-01T10:28:22.085Z,988.04
2018-10-01T10:29:22.276Z,988.02
2018-10-01T10:30:22.446Z,988.06
2018-10-01T10:31:22.688Z,988.06
2018-10-01T10:32:22.782Z,988.10
2018-10-01T10:33:22.932Z,989.20
2018-10-01T10:34:23.259Z,989.26
2018-10-01T10:35:23.319Z,989.21
2018-10-01T10:36:23.578Z,989.34
2018-10-01T10:37:23.598Z,989.32
2018-10-01T10:38:23.734Z,989.34
2018-10-01T10:39:23.995Z,988.19
2018-10-01T10:40:24.235Z,988.11
2018-10-01T10:41:24.416Z,988.07
2018-10-01T10:42:24.850Z,988.00
2018-10-01T10:43:24.970Z,987.95
2018-10-01T10:44:27.964Z,987.98
2018-10-01T10:45:26.121Z,988.06
2018-10-01T10:46:25.320Z,988.15
2018-10-01T10:47:26.290Z,988.12
2018-10-01T10:48:26.512Z,988.07
2018-10-01T10:49:31.769Z,988.03
2018-10-01T10:50:28.774Z,988.07
2018-10-01T10:51:49.780Z,988.16
2018-10-01T10:52:29.964Z,988.17
2018-10-01T10:53:28.576Z,988.15
2018-10-01T10:54:26.987Z,988.19
2018-10-01T10:55:29.112Z,988.24
2018-10-01T10:56:33.479Z,988.29
2018-10-01T10:57:29.136Z,988.30
2018-10-01T10:58:32.043Z,988.33
2018-10-01T10:59:28.157Z,988.23
2018-10-01T11:01:28.114Z,988.32
2018-10-01T11:02:31.993Z,988.31
2018-10-01T11:03:28.633Z,988.27
2018-10-01T11:04:28.539Z,988.26
2018-10-01T11:05:29.359Z,988.28
2018-10-01T11:06:29.028Z,988.32
2018-10-01T11:08:30.150Z,988.25
2018-10-01T11:09:32.389Z,988.25
2018-10-01T11:10:30.609Z,988.29
2018-10-01T11:11:31.651Z,988.28
2018-10-01T11:12:32.114Z,988.25
2018-10-01T11:13:33.161Z,988.31
2018-10-01T11:14:34.165Z,988.32
2018-10-01T11:46:52.072Z,988.48
2018-10-01T11:47:54.595Z,988.25
2018-10-01T11:49:48.557Z,988.19
2018-10-01T11:50:44.196Z,988.07
2018-10-01T11:51:44.529Z,988.07
2018-10-01T11:52:47.182Z,988.02
2018-10-01T11:53:42.110Z,988.06
2018-10-01T11:54:42.997Z,988.07
2018-10-01T11:55:42.885Z,988.10
2018-10-01T11:56:42.877Z,989.17
2018-10-01T11:57:42.898Z,989.35
2018-10-01T11:58:43.407Z,988.89
2018-10-01T11:59:43.658Z,989.28
2018-10-01T12:00:43.508Z,989.33
2018-10-01T12:01:44.563Z,989.31
2018-10-01T12:02:43.509Z,989.28
2018-10-01T12:03:43.932Z,989.35
2018-10-01T12:04:44.108Z,989.42
2018-10-01T12:05:44.127Z,989.32
2018-10-01T12:06:44.527Z,989.32
2018-10-01T12:07:44.372Z,989.33
2018-10-01T12:08:45.203Z,989.39
2018-10-01T12:09:44.801Z,989.37
2018-10-01T12:10:45.135Z,989.38
2018-10-01T12:11:45.165Z,988.27
2018-10-01T12:12:45.230Z,988.19
2018-10-01T12:13:45.452Z,988.51
2018-10-01T12:16:27.727Z,988.69
2018-10-01T12:17:31.734Z,988.82
2018-10-01T12:18:23.845Z,989.23
2018-10-01T12:19:27.674Z,989.22
2018-10-01T12:21:14.923Z,989.21
2018-10-01T12:22:24.606Z,989.22
2018-10-01T12:27:53.861Z,989.11
2018-10-01T12:29:03.449Z,989.12
2018-10-01T12:29:54.784Z,989.07
2018-10-01T12:30:55.357Z,989.05
2018-10-01T12:31:57.599Z,989.06
2018-10-01T12:33:00.865Z,989.05
2018-10-01T12:37:30.528Z,988.96
2018-10-01T12:39:31.300Z,988.92
2018-10-01T12:40:41.349Z,988.89
2018-10-01T12:44:27.809Z,988.39
2018-10-01T12:45:27.531Z,988.27
2018-10-01T12:46:27.575Z,988.37
2018-10-01T12:47:27.787Z,988.41
2018-10-01T12:48:28.051Z,988.39
2018-10-01T12:49:28.262Z,988.36
2018-10-01T12:50:28.458Z,988.40
2018-10-01T12:51:28.677Z,988.39
2018-10-01T12:52:28.730Z,988.42
2018-10-01T12:53:29.035Z,988.41
2018-10-01T12:54:29.270Z,988.40
2018-10-01T12:55:29.274Z,988.39
2018-10-01T12:56:29.400Z,988.39
2018-10-01T12:57:29.739Z,987.95
2018-10-01T12:58:29.718Z,987.94
2018-10-01T12:59:30.167Z,988.05
2018-10-01T13:00:30.181Z,988.05
2018-10-01T13:01:30.359Z,988.20
2018-10-01T13:02:30.803Z,988.13
2018-10-01T13:03:30.843Z,988.10
2018-10-01T13:04:30.810Z,988.03
2018-10-01T13:05:31.626Z,988.12
2018-10-01T13:06:31.889Z,988.06
2018-10-01T13:07:31.690Z,988.09
2018-10-01T13:08:33.668Z,988.07
2018-10-01T13:09:31.988Z,988.10
2018-10-01T13:10:31.988Z,988.22
2018-10-01T13:11:32.523Z,988.63
2018-10-01T13:12:32.622Z,988.54
2018-10-01T13:13:32.693Z,988.59
2018-10-01T13:14:32.515Z,988.60
2018-10-01T13:15:32.905Z,988.56
2018-10-01T13:16:33.048Z,988.52
2018-10-01T13:17:33.333Z,988.53
2018-10-01T13:18:33.346Z,988.51
2018-10-01T13:19:33.313Z,988.49
2018-10-01T13:20:33.850Z,988.53
2018-10-01T13:21:33.801Z,988.47
2018-10-01T13:22:34.108Z,988.46
2018-10-01T13:23:35.030Z,988.41
2018-10-01T13:24:34.443Z,988.39
2018-10-01T13:25:34.665Z,988.33
2018-10-01T13:26:35.143Z,988.30
2018-10-01T13:27:36.165Z,988.33
2018-10-01T13:28:35.542Z,988.29
2018-10-01T13:29:36.230Z,988.23
2018-10-01T13:30:35.521Z,988.26
2018-10-01T13:31:36.293Z,988.28
2018-10-01T13:32:35.909Z,988.26
2018-10-01T13:33:36.390Z,988.24
2018-10-01T13:34:36.380Z,988.22
2018-10-01T13:35:36.629Z,988.07
2018-10-01T13:36:36.836Z,988.23
2018-10-01T13:37:36.922Z,988.07
2018-10-01T13:38:37.018Z,988.21
2018-10-01T13:39:37.241Z,988.14
2018-10-01T13:40:37.462Z,988.04
2018-10-01T13:41:37.525Z,988.14
2018-10-01T13:42:37.883Z,988.09
2018-10-01T13:43:37.962Z,988.04
2018-10-01T13:44:38.306Z,988.07
2018-10-01T13:45:38.435Z,988.05
2018-10-01T13:46:39.285Z,988.14
2018-10-01T13:47:38.685Z,988.40
2018-10-01T13:48:39.034Z,988.32
2018-10-01T13:49:39.291Z,988.11
2018-10-01T13:50:39.336Z,988.15
2018-10-01T13:51:39.325Z,988.11
2018-10-01T13:52:39.602Z,988.06
2018-10-01T13:53:39.848Z,988.07
2018-10-01T13:54:39.988Z,988.03
2018-10-01T13:55:40.436Z,988.01
2018-10-01T13:56:40.776Z,988.04
2018-10-01T13:59:25.591Z,988.02
2018-10-01T14:01:30.699Z,988.00
2018-10-01T14:04:36.907Z,988.01
2018-10-01T14:05:20.138Z,987.98
2018-10-01T14:11:07.405Z,987.97
2018-10-01T14:14:55.715Z,988.02
2018-10-01T14:18:35.992Z,987.96
2018-10-01T14:19:28.116Z,987.97
2018-10-01T14:20:29.669Z,987.98
2018-10-01T14:21:25.917Z,987.97
2018-10-01T14:22:24.657Z,988.00
2018-10-01T14:23:24.646Z,988.05
2018-10-01T14:24:24.985Z,988.18
2018-10-01T14:25:25.438Z,988.30
2018-10-01T14:26:24.870Z,988.29
2018-10-01T14:27:25.326Z,988.28
2018-10-01T14:28:25.355Z,988.43
2018-10-01T14:29:25.590Z,988.43
2018-10-01T14:30:25.846Z,988.48
2018-10-01T14:31:25.926Z,988.48
2018-10-01T14:32:26.244Z,988.50
2018-10-01T14:33:26.235Z,988.54
2018-10-01T14:34:26.557Z,988.57
2018-10-01T14:35:26.493Z,988.59
2018-10-01T14:36:28.540Z,988.63
2018-10-01T14:37:26.594Z,988.66
2018-10-01T14:38:27.322Z,988.69
2018-10-01T14:39:27.248Z,988.67
2018-10-01T14:40:27.483Z,988.74
2018-10-01T14:41:27.552Z,988.79
2018-10-01T14:42:28.041Z,988.84
2018-10-01T14:43:28.585Z,988.77
2018-10-01T14:44:28.294Z,988.87
2018-10-01T14:45:29.686Z,988.81
2018-10-01T14:46:28.426Z,988.91
2018-10-01T14:47:29.315Z,988.94
2018-10-01T14:48:29.802Z,988.88
2018-10-01T14:49:30.651Z,988.96
2018-10-01T15:11:36.776Z,989.33
2018-10-01T16:01:45.501Z,989.48
2018-10-01T16:38:06.299Z,990.01
2018-10-01T16:39:05.743Z,990.01
2018-10-01T16:40:16.005Z,990.02
2018-10-01T16:43:36.064Z,990.10
2018-10-01T17:28:00.588Z,990.82
2018-10-01T17:28:59.106Z,990.85
2018-10-01T17:29:57.924Z,990.78
2018-10-01T17:30:54.356Z,990.84
2018-10-01T17:32:57.881Z,990.83
2018-10-01T17:33:57.267Z,990.88
2018-10-01T17:34:55.619Z,990.90
2018-10-01T17:35:56.985Z,990.93
2018-10-01T17:36:52.097Z,990.95
2018-10-01T17:37:52.175Z,990.94
2018-10-01T17:38:51.671Z,990.95
2018-10-01T17:39:51.286Z,990.95
2018-10-01T17:40:51.526Z,991.02
2018-10-01T17:41:52.151Z,991.02
2018-10-01T17:47:04.632Z,991.04
2018-10-01T17:48:06.423Z,991.04
2018-10-01T17:56:10.824Z,991.14
2018-10-01T17:57:12.519Z,991.16
2018-10-01T17:58:15.747Z,991.23
2018-10-01T17:59:10.346Z,991.19
2018-10-01T18:13:53.968Z,991.38
2018-10-01T18:27:30.996Z,991.47
2018-10-01T18:30:40.347Z,991.41
2018-10-01T18:31:31.437Z,991.45
2018-10-01T18:49:21.508Z,991.57
